createdAt,value
2022-10-29T00:00:47.695Z,22.75
2022-10-29T00:03:14.158Z,22.76
2022-10-29T00:05:40.459Z,22.76
2022-10-29T00:08:06.731Z,22.76
2022-10-29T00:10:33.210Z,22.77
2022-10-29T00:13:03.252Z,22.78
2022-10-29T00:15:29.550Z,22.77
2022-10-29T00:17:56.452Z,22.81
2022-10-29T00:20:24.186Z,22.81
2022-10-29T00:22:53.487Z,22.79
2022-10-29T00:25:19.961Z,22.79
2022-10-29T00:27:46.199Z,22.78
2022-10-29T00:30:12.869Z,22.79
2022-10-29T00:32:39.268Z,22.79
2022-10-29T00:35:05.883Z,22.79
2022-10-29T00:37:32.222Z,22.79
2022-10-29T00:39:58.459Z,22.80
2022-10-29T00:42:24.753Z,22.80
2022-10-29T00:44:51.252Z,22.79
2022-10-29T00:47:23.378Z,22.78
2022-10-29T00:50:10.649Z,22.77
2022-10-29T00:52:39.193Z,22.75
2022-10-29T00:55:07.120Z,22.75
2022-10-29T00:57:38.766Z,22.74
2022-10-29T01:00:05.395Z,22.74
2022-10-29T01:02:33.141Z,22.74
2022-10-29T01:05:00.735Z,22.74
2022-10-29T01:07:29.739Z,22.75
2022-10-29T01:09:57.235Z,22.74
2022-10-29T01:12:32.642Z,22.73
2022-10-29T01:15:13.541Z,22.72
2022-10-29T01:17:39.738Z,22.72
2022-10-29T01:20:09.241Z,22.73
2022-10-29T01:22:44.932Z,22.73
2022-10-29T01:25:30.386Z,22.72
2022-10-29T01:28:03.324Z,22.72
2022-10-29T01:30:43.383Z,22.71
2022-10-29T01:33:17.398Z,22.70
2022-10-29T01:36:07.795Z,22.69
2022-10-29T01:38:38.450Z,22.70
2022-10-29T01:41:07.645Z,22.70
2022-10-29T01:43:33.837Z,22.68
2022-10-29T01:46:05.476Z,22.66
2022-10-29T01:48:34.094Z,22.66
2022-10-29T01:51:02.883Z,22.62
2022-10-29T01:53:30.510Z,22.58
2022-10-29T01:55:56.797Z,22.57
2022-10-29T01:58:24.970Z,22.56
2022-10-29T02:01:09.826Z,22.53
2022-10-29T02:03:36.122Z,22.52
2022-10-29T02:06:23.069Z,22.50
2022-10-29T02:08:52.092Z,22.47
2022-10-29T02:11:23.632Z,22.46
2022-10-29T02:13:54.046Z,22.43
2022-10-29T02:16:20.875Z,22.40
2022-10-29T02:18:49.070Z,22.38
2022-10-29T02:21:16.408Z,22.35
2022-10-29T02:23:42.692Z,22.31
2022-10-29T02:26:09.182Z,22.28
2022-10-29T02:28:35.466Z,22.23
2022-10-29T02:31:01.732Z,22.21
2022-10-29T02:33:28.261Z,22.19
2022-10-29T02:35:54.651Z,22.15
2022-10-29T02:38:21.084Z,22.13
2022-10-29T02:40:47.731Z,22.11
2022-10-29T02:43:17.177Z,22.08
2022-10-29T02:45:43.462Z,22.04
2022-10-29T02:48:09.679Z,22.00
2022-10-29T02:50:37.422Z,21.95
2022-10-29T02:53:03.694Z,21.91
2022-10-29T02:55:31.311Z,21.88
2022-10-29T02:57:58.026Z,21.83
2022-10-29T03:00:24.593Z,21.80
2022-10-29T03:02:54.242Z,21.76
2022-10-29T03:05:20.816Z,21.73
2022-10-29T03:07:47.112Z,21.70
2022-10-29T03:10:13.398Z,21.68
2022-10-29T03:12:39.625Z,21.66
2022-10-29T03:15:06.311Z,21.63
2022-10-29T03:17:34.156Z,21.62
2022-10-29T03:20:00.596Z,21.61
2022-10-29T03:22:26.820Z,21.57
2022-10-29T03:24:53.227Z,21.57
2022-10-29T03:27:19.660Z,21.55
2022-10-29T03:29:45.932Z,21.54
2022-10-29T03:32:12.332Z,21.54
2022-10-29T03:34:38.592Z,21.54
2022-10-29T03:37:04.894Z,21.55
2022-10-29T03:39:31.296Z,21.54
2022-10-29T03:41:57.505Z,21.54
2022-10-29T03:44:23.732Z,21.54
2022-10-29T03:46:50.397Z,21.53
2022-10-29T03:49:16.665Z,21.51
2022-10-29T03:51:42.934Z,21.50
2022-10-29T03:54:09.136Z,21.48
2022-10-29T03:56:35.408Z,21.45
2022-10-29T03:59:02.014Z,21.43
2022-10-29T04:01:28.418Z,21.43
2022-10-29T04:03:54.747Z,21.41
2022-10-29T04:06:20.964Z,21.39
2022-10-29T04:08:47.404Z,21.36
2022-10-29T04:11:14.065Z,21.34
2022-10-29T04:13:40.463Z,21.32
2022-10-29T04:16:07.205Z,21.31
2022-10-29T04:18:33.484Z,21.30
2022-10-29T04:28:17.567Z,21.25
2022-10-29T04:29:21.470Z,21.25
2022-10-29T04:31:47.915Z,21.23
2022-10-29T04:34:14.348Z,21.23
2022-10-29T04:36:40.795Z,21.23
2022-10-29T04:39:07.916Z,21.23
2022-10-29T04:41:34.928Z,21.23
2022-10-29T04:44:01.395Z,21.23
2022-10-29T04:46:28.015Z,21.22
2022-10-29T04:48:54.380Z,21.23
2022-10-29T04:51:21.726Z,21.22
2022-10-29T04:53:48.371Z,21.21
2022-10-29T04:56:16.342Z,21.21
2022-10-29T04:58:42.751Z,21.22
2022-10-29T05:01:09.104Z,21.21
2022-10-29T05:03:35.503Z,21.21
2022-10-29T05:06:02.804Z,21.23
2022-10-29T05:08:29.252Z,21.22
2022-10-29T05:10:55.759Z,21.23
2022-10-29T05:13:21.971Z,21.24
2022-10-29T05:15:53.323Z,21.25
2022-10-29T05:18:19.920Z,21.23
2022-10-29T05:20:46.170Z,21.22
2022-10-29T05:23:13.556Z,21.20
2022-10-29T05:25:40.526Z,21.17
2022-10-29T05:28:08.145Z,21.14
2022-10-29T05:30:34.611Z,21.12
2022-10-29T05:33:01.072Z,21.09
2022-10-29T05:35:27.364Z,21.09
2022-10-29T05:37:54.375Z,21.07
2022-10-29T05:40:24.005Z,21.06
2022-10-29T05:42:50.383Z,21.07
2022-10-29T05:45:16.844Z,21.06
2022-10-29T05:47:43.136Z,21.08
2022-10-29T05:50:09.744Z,21.10
2022-10-29T05:52:36.051Z,21.12
2022-10-29T05:55:02.475Z,21.13
2022-10-29T05:57:28.903Z,21.14
2022-10-29T05:59:55.236Z,21.15
2022-10-29T06:02:21.898Z,21.14
2022-10-29T06:04:48.318Z,21.16
2022-10-29T06:07:14.724Z,21.16
2022-10-29T06:09:40.936Z,21.18
2022-10-29T06:12:07.414Z,21.20
2022-10-29T06:14:33.690Z,21.21
2022-10-29T06:17:01.267Z,21.22
2022-10-29T06:19:27.512Z,21.24
2022-10-29T06:21:55.281Z,21.25
2022-10-29T06:24:24.168Z,21.25
2022-10-29T06:26:52.940Z,21.25
2022-10-29T06:29:19.149Z,21.26
2022-10-29T06:31:45.473Z,21.27
2022-10-29T06:34:13.455Z,21.28
2022-10-29T06:36:39.671Z,21.30
2022-10-29T06:39:05.904Z,21.34
2022-10-29T06:41:32.152Z,21.34
2022-10-29T06:43:58.578Z,21.37
2022-10-29T06:46:25.002Z,21.38
2022-10-29T06:48:51.218Z,21.39
2022-10-29T06:51:17.492Z,21.41
2022-10-29T06:53:45.015Z,21.42
2022-10-29T06:56:11.227Z,21.43
2022-10-29T06:58:37.431Z,21.45
2022-10-29T07:01:03.770Z,21.47
2022-10-29T07:03:30.250Z,21.48
2022-10-29T07:05:57.404Z,21.51
2022-10-29T07:08:24.136Z,21.53
2022-10-29T07:10:51.394Z,21.56
2022-10-29T07:13:17.650Z,21.59
2022-10-29T07:15:43.873Z,21.63
2022-10-29T07:18:11.409Z,21.68
2022-10-29T07:20:41.830Z,21.72
2022-10-29T07:23:08.561Z,21.76
2022-10-29T07:25:35.493Z,21.80
2022-10-29T07:28:16.095Z,21.85
2022-10-29T07:30:43.119Z,21.90
2022-10-29T07:33:09.827Z,21.95
2022-10-29T07:35:36.190Z,22.00
2022-10-29T07:38:08.793Z,22.04
2022-10-29T07:40:37.196Z,22.10
2022-10-29T07:43:03.668Z,22.16
2022-10-29T07:45:29.926Z,22.21
2022-10-29T07:48:03.432Z,22.26
2022-10-29T07:50:30.573Z,22.32
2022-10-29T07:52:59.170Z,22.39
2022-10-29T07:55:25.912Z,22.45
2022-10-29T07:57:58.826Z,22.51
2022-10-29T08:00:25.837Z,22.58
2022-10-29T08:02:55.528Z,22.65
2022-10-29T08:05:22.521Z,22.72
2022-10-29T08:07:48.797Z,22.78
2022-10-29T08:10:15.678Z,22.83
2022-10-29T08:12:48.529Z,22.90
2022-10-29T08:15:14.953Z,22.97
2022-10-29T08:17:41.204Z,23.01
2022-10-29T08:20:07.855Z,23.06
2022-10-29T08:22:35.287Z,23.09
2022-10-29T08:25:01.597Z,23.14
2022-10-29T08:27:27.811Z,23.18
2022-10-29T08:29:54.052Z,23.22
2022-10-29T08:32:20.367Z,23.25
2022-10-29T08:34:46.613Z,23.29
2022-10-29T08:37:12.889Z,23.32
2022-10-29T08:39:39.092Z,23.37
2022-10-29T08:42:27.335Z,23.39
2022-10-29T08:45:07.609Z,23.43
2022-10-29T08:47:51.875Z,23.47
2022-10-29T08:50:21.016Z,23.49
2022-10-29T08:52:53.311Z,23.51
2022-10-29T08:55:26.963Z,23.55
2022-10-29T08:57:56.557Z,23.59
2022-10-29T09:00:25.360Z,23.64
2022-10-29T09:02:55.785Z,23.69
2022-10-29T09:05:24.875Z,23.75
2022-10-29T09:08:17.346Z,23.81
2022-10-29T09:10:46.573Z,23.90
2022-10-29T09:13:33.015Z,23.97
2022-10-29T09:16:08.541Z,24.05
2022-10-29T09:18:53.716Z,24.15
2022-10-29T09:21:29.582Z,24.24
2022-10-29T09:23:58.854Z,24.32
2022-10-29T09:26:25.067Z,24.42
2022-10-29T09:29:00.460Z,24.50
2022-10-29T09:31:26.857Z,24.58
2022-10-29T09:33:56.549Z,24.67
2022-10-29T09:36:26.489Z,24.77
2022-10-29T09:39:13.791Z,24.86
2022-10-29T09:41:40.610Z,25.00
2022-10-29T09:44:11.574Z,25.10
2022-10-29T09:46:38.249Z,25.18
2022-10-29T09:49:23.945Z,25.26
2022-10-29T09:51:53.790Z,25.33
2022-10-29T09:54:20.633Z,25.41
2022-10-29T09:56:51.670Z,25.47
2022-10-29T09:59:22.770Z,25.57
2022-10-29T10:01:49.323Z,25.64
2022-10-29T10:04:22.387Z,25.73
2022-10-29T10:07:07.137Z,25.83
2022-10-29T10:09:52.688Z,25.93
2022-10-29T10:12:19.970Z,26.04
2022-10-29T10:14:47.265Z,26.11
2022-10-29T10:17:13.639Z,26.21
2022-10-29T10:19:44.329Z,26.29
2022-10-29T10:22:18.738Z,26.35
2022-10-29T10:24:45.012Z,26.42
2022-10-29T10:30:04.109Z,26.51
2022-10-29T10:32:31.057Z,26.54
2022-10-29T10:34:57.566Z,26.57
2022-10-29T10:37:25.199Z,26.63
2022-10-29T10:39:54.898Z,26.70
2022-10-29T10:42:28.763Z,26.75
2022-10-29T10:44:57.853Z,26.80
2022-10-29T10:47:27.499Z,26.83
2022-10-29T10:49:53.920Z,26.88
2022-10-29T10:52:38.105Z,26.92
2022-10-29T10:55:07.584Z,26.95
2022-10-29T10:57:39.663Z,26.98
2022-10-29T11:00:18.548Z,27.03
2022-10-29T11:02:50.898Z,27.10
2022-10-29T11:05:21.272Z,27.16
2022-10-29T11:07:52.180Z,27.25
2022-10-29T11:10:21.105Z,27.36
2022-10-29T11:12:52.398Z,27.47
2022-10-29T11:15:39.078Z,27.57
2022-10-29T11:20:49.502Z,27.75
2022-10-29T11:23:23.195Z,27.81
2022-10-29T11:25:54.472Z,27.90
2022-10-29T11:28:29.410Z,27.98
2022-10-29T11:31:13.852Z,28.04
2022-10-29T11:33:59.961Z,28.10
2022-10-29T11:36:30.053Z,28.11
2022-10-29T11:39:08.597Z,28.14
2022-10-29T11:41:40.893Z,28.15
2022-10-29T11:44:14.531Z,28.19
2022-10-29T11:46:59.629Z,28.21
2022-10-29T11:49:43.041Z,28.23
2022-10-29T11:52:12.041Z,28.26
2022-10-29T11:54:53.744Z,28.30
2022-10-29T11:57:27.445Z,28.37
2022-10-29T12:00:24.091Z,28.41
2022-10-29T12:03:09.005Z,28.48
2022-10-29T12:05:40.226Z,28.51
2022-10-29T12:08:12.666Z,28.56
2022-10-29T12:11:05.309Z,28.59
2022-10-29T12:13:50.713Z,28.63
2022-10-29T12:16:30.781Z,28.66
2022-10-29T12:19:12.198Z,28.69
2022-10-29T12:21:38.619Z,28.74
2022-10-29T12:24:17.090Z,28.76
2022-10-29T12:26:58.960Z,28.78
2022-10-29T12:29:47.776Z,28.83
2022-10-29T12:32:19.721Z,28.85
2022-10-29T12:34:51.924Z,28.88
2022-10-29T12:37:25.382Z,28.90
2022-10-29T12:40:00.587Z,28.93
2022-10-29T12:42:27.633Z,28.94
2022-10-29T12:44:58.499Z,28.98
2022-10-29T12:47:43.734Z,29.00
2022-10-29T12:50:26.998Z,28.99
2022-10-29T12:53:01.563Z,28.99
2022-10-29T12:55:28.142Z,29.00
2022-10-29T12:57:54.456Z,29.00
2022-10-29T13:00:23.764Z,28.99
2022-10-29T13:02:52.401Z,29.00
2022-10-29T13:05:24.555Z,28.99
2022-10-29T13:07:57.162Z,28.97
2022-10-29T13:10:23.965Z,28.94
2022-10-29T13:12:53.209Z,28.92
2022-10-29T13:15:22.044Z,28.89
2022-10-29T13:17:49.907Z,28.85
2022-10-29T13:20:22.145Z,28.83
2022-10-29T13:22:51.544Z,28.80
2022-10-29T13:25:42.925Z,28.78
2022-10-29T13:28:09.167Z,28.77
2022-10-29T13:30:37.015Z,28.76
2022-10-29T13:33:29.540Z,28.77
2022-10-29T13:36:21.458Z,28.79
2022-10-29T13:39:04.485Z,28.84
2022-10-29T13:41:43.889Z,28.88
2022-10-29T13:44:13.306Z,28.93
2022-10-29T13:46:57.562Z,28.99
2022-10-29T13:49:27.400Z,29.02
2022-10-29T13:52:02.697Z,29.05
2022-10-29T13:54:37.514Z,29.07
2022-10-29T13:57:14.480Z,29.09
2022-10-29T13:59:42.886Z,29.11
2022-10-29T14:02:19.490Z,29.13
2022-10-29T14:04:49.007Z,29.14
2022-10-29T14:07:18.491Z,29.15
2022-10-29T14:09:47.394Z,29.17
2022-10-29T14:12:17.651Z,29.19
2022-10-29T14:15:03.910Z,29.19
2022-10-29T14:17:31.746Z,29.22
2022-10-29T14:19:58.029Z,29.20
2022-10-29T14:22:40.616Z,29.19
2022-10-29T14:25:30.009Z,29.18
2022-10-29T14:28:17.231Z,29.11
2022-10-29T14:30:44.452Z,29.06
2022-10-29T14:33:17.979Z,29.00
2022-10-29T14:35:46.659Z,28.94
2022-10-29T14:38:13.667Z,28.86
2022-10-29T14:40:40.190Z,28.80
2022-10-29T14:43:06.489Z,28.74
2022-10-29T14:45:32.838Z,28.68
2022-10-29T14:48:01.204Z,28.63
2022-10-29T14:50:29.974Z,28.58
2022-10-29T14:52:59.289Z,28.55
2022-10-29T14:55:33.818Z,28.53
2022-10-29T14:58:12.485Z,28.48
2022-10-29T15:00:47.537Z,28.47
2022-10-29T15:03:16.092Z,28.45
2022-10-29T15:05:42.412Z,28.43
2022-10-29T15:08:09.028Z,28.41
2022-10-29T15:10:52.069Z,28.41
2022-10-29T15:13:31.153Z,28.38
2022-10-29T15:16:06.605Z,28.36
2022-10-29T15:18:33.754Z,28.32
2022-10-29T15:21:00.297Z,28.29
2022-10-29T15:23:27.862Z,28.21
2022-10-29T15:25:58.478Z,28.13
2022-10-29T15:28:26.688Z,28.03
2022-10-29T15:30:54.141Z,27.94
2022-10-29T15:33:40.535Z,27.84
2022-10-29T15:36:06.956Z,27.73
2022-10-29T15:38:34.276Z,27.62
2022-10-29T15:41:12.686Z,27.53
2022-10-29T15:43:51.648Z,27.41
2022-10-29T15:46:22.127Z,27.30
2022-10-29T15:48:50.483Z,27.22
2022-10-29T15:51:17.092Z,27.12
2022-10-29T15:53:43.363Z,27.03
2022-10-29T15:56:13.224Z,26.96
2022-10-29T15:58:40.295Z,26.87
2022-10-29T16:01:06.677Z,26.79
2022-10-29T16:03:35.511Z,26.72
2022-10-29T16:06:05.927Z,26.63
2022-10-29T16:08:40.654Z,26.55
2022-10-29T16:11:11.033Z,26.46
2022-10-29T16:13:37.435Z,26.39
2022-10-29T16:16:04.314Z,26.32
2022-10-29T16:18:30.555Z,26.25
2022-10-29T16:20:57.914Z,26.18
2022-10-29T16:23:24.320Z,26.10
2022-10-29T16:25:50.801Z,26.04
2022-10-29T16:28:17.072Z,25.99
2022-10-29T16:30:45.423Z,25.92
2022-10-29T16:33:11.939Z,25.85
2022-10-29T16:35:38.409Z,25.80
2022-10-29T16:38:04.830Z,25.74
2022-10-29T16:40:31.100Z,25.68
2022-10-29T16:42:57.749Z,25.62
2022-10-29T16:45:25.970Z,25.58
2022-10-29T16:47:52.448Z,25.52
2022-10-29T16:50:23.109Z,25.47
2022-10-29T16:52:56.321Z,25.43
2022-10-29T16:55:22.636Z,25.37
2022-10-29T16:57:48.874Z,25.33
2022-10-29T17:00:15.266Z,25.29
2022-10-29T17:02:44.669Z,25.25
2022-10-29T17:05:11.623Z,25.22
2022-10-29T17:07:39.037Z,25.17
2022-10-29T17:10:05.557Z,25.14
2022-10-29T17:12:32.514Z,25.10
2022-10-29T17:14:58.802Z,25.08
2022-10-29T17:17:25.022Z,25.05
2022-10-29T17:19:52.341Z,25.00
2022-10-29T17:22:18.625Z,24.97
2022-10-29T17:24:45.564Z,24.94
2022-10-29T17:27:12.440Z,24.91
2022-10-29T17:29:38.826Z,24.89
2022-10-29T17:32:06.088Z,24.86
2022-10-29T17:34:32.540Z,24.84
2022-10-29T17:36:59.155Z,24.82
2022-10-29T17:39:25.535Z,24.79
2022-10-29T17:41:52.105Z,24.77
2022-10-29T17:44:18.483Z,24.73
2022-10-29T17:46:44.838Z,24.72
2022-10-29T17:49:11.122Z,24.69
2022-10-29T17:51:37.444Z,24.66
2022-10-29T17:54:03.732Z,24.63
2022-10-29T17:56:34.309Z,24.60
2022-10-29T17:59:00.974Z,24.55
2022-10-29T18:01:27.346Z,24.54
2022-10-29T18:03:53.640Z,24.50
2022-10-29T18:06:19.858Z,24.47
2022-10-29T18:08:46.142Z,24.44
2022-10-29T18:11:15.140Z,24.41
2022-10-29T18:13:42.499Z,24.37
2022-10-29T18:16:09.611Z,24.34
2022-10-29T18:18:48.093Z,24.32
2022-10-29T18:21:23.421Z,24.27
2022-10-29T18:23:49.751Z,24.24
2022-10-29T18:26:19.028Z,24.22
2022-10-29T18:28:45.356Z,24.19
2022-10-29T18:31:11.597Z,24.17
2022-10-29T18:33:38.025Z,24.15
2022-10-29T18:36:07.200Z,24.14
2022-10-29T18:38:33.656Z,24.11
2022-10-29T18:40:59.972Z,24.10
2022-10-29T18:43:26.784Z,24.08
2022-10-29T18:46:03.704Z,24.06
2022-10-29T18:51:04.250Z,24.02
2022-10-29T18:53:30.880Z,24.00
2022-10-29T18:55:57.402Z,23.96
2022-10-29T18:58:23.743Z,23.92
2022-10-29T19:00:50.025Z,23.89
2022-10-29T19:03:16.426Z,23.84
2022-10-29T19:05:44.774Z,23.81
2022-10-29T19:08:11.826Z,23.76
2022-10-29T19:10:39.166Z,23.72
2022-10-29T19:13:05.813Z,23.68
2022-10-29T19:15:33.345Z,23.64
2022-10-29T19:18:00.003Z,23.59
2022-10-29T19:20:27.031Z,23.54
2022-10-29T19:22:54.382Z,23.50
2022-10-29T19:25:20.848Z,23.45
2022-10-29T19:27:47.235Z,23.41
2022-10-29T19:30:13.562Z,23.37
2022-10-29T19:32:40.807Z,23.31
2022-10-29T19:35:07.533Z,23.27
2022-10-29T19:37:33.801Z,23.23
2022-10-29T19:40:00.072Z,23.18
2022-10-29T19:42:26.307Z,23.12
2022-10-29T19:44:55.491Z,23.08
2022-10-29T19:47:22.728Z,23.04
2022-10-29T19:49:48.936Z,22.99
2022-10-29T19:52:15.173Z,22.94
2022-10-29T19:54:41.456Z,22.90
2022-10-29T19:57:07.705Z,22.85
2022-10-29T19:59:33.988Z,22.81
2022-10-29T20:02:00.672Z,22.77
2022-10-29T20:04:27.228Z,22.74
2022-10-29T20:06:53.650Z,22.71
2022-10-29T20:09:20.081Z,22.69
2022-10-29T20:11:46.313Z,22.66
2022-10-29T20:14:12.628Z,22.62
2022-10-29T20:16:40.543Z,22.60
2022-10-29T20:19:07.104Z,22.58
2022-10-29T20:21:33.375Z,22.55
2022-10-29T20:23:59.604Z,22.55
2022-10-29T20:26:25.887Z,22.53
2022-10-29T20:28:52.356Z,22.54
2022-10-29T20:31:19.399Z,22.52
2022-10-29T20:33:49.524Z,22.52
2022-10-29T20:36:16.012Z,22.50
2022-10-29T20:38:42.266Z,22.50
2022-10-29T20:41:08.555Z,22.49
2022-10-29T20:43:34.899Z,22.49
2022-10-29T20:46:02.968Z,22.47
2022-10-29T20:48:30.163Z,22.47
2022-10-29T20:50:56.474Z,22.47
2022-10-29T20:53:22.739Z,22.45
2022-10-29T20:55:49.695Z,22.45
2022-10-29T20:58:15.921Z,22.44
2022-10-29T21:00:42.340Z,22.44
2022-10-29T21:03:11.176Z,22.45
2022-10-29T21:05:37.451Z,22.46
2022-10-29T21:08:03.732Z,22.47
2022-10-29T21:10:30.045Z,22.48
2022-10-29T21:12:56.590Z,22.49
2022-10-29T21:15:23.074Z,22.49
2022-10-29T21:17:49.317Z,22.50
2022-10-29T21:20:15.558Z,22.51
2022-10-29T21:22:41.781Z,22.51
2022-10-29T21:25:08.450Z,22.52
2022-10-29T21:27:34.752Z,22.51
2022-10-29T21:30:01.036Z,22.52
2022-10-29T21:32:27.366Z,22.52
2022-10-29T21:34:53.771Z,22.51
2022-10-29T21:37:19.980Z,22.51
2022-10-29T21:39:46.196Z,22.50
2022-10-29T21:42:12.443Z,22.48
2022-10-29T21:44:38.714Z,22.48
2022-10-29T21:47:05.013Z,22.45
2022-10-29T21:49:31.237Z,22.42
2022-10-29T21:51:57.575Z,22.39
2022-10-29T21:54:25.836Z,22.36
2022-10-29T21:56:54.537Z,22.33
2022-10-29T21:59:20.973Z,22.31
2022-10-29T22:01:47.427Z,22.28
2022-10-29T22:04:13.881Z,22.26
2022-10-29T22:06:40.089Z,22.26
2022-10-29T22:09:06.549Z,22.26
2022-10-29T22:11:32.789Z,22.26
2022-10-29T22:13:59.156Z,22.27
2022-10-29T22:16:25.457Z,22.28
2022-10-29T22:18:52.705Z,22.27
2022-10-29T22:21:23.537Z,22.27
2022-10-29T22:23:50.910Z,22.26
2022-10-29T22:26:18.164Z,22.25
2022-10-29T22:28:47.258Z,22.25
2022-10-29T22:31:15.167Z,22.25
2022-10-29T22:33:44.174Z,22.23
2022-10-29T22:36:18.368Z,22.22
2022-10-29T22:38:45.220Z,22.19
2022-10-29T22:41:12.782Z,22.18
2022-10-29T22:43:39.071Z,22.15
2022-10-29T22:46:06.297Z,22.14
2022-10-29T22:48:32.617Z,22.12
2022-10-29T22:51:03.037Z,22.09
2022-10-29T22:53:29.747Z,22.06
2022-10-29T22:55:56.057Z,22.03
2022-10-29T22:58:22.654Z,22.02
2022-10-29T23:00:49.055Z,21.98
2022-10-29T23:03:15.533Z,21.96
2022-10-29T23:05:41.753Z,21.94
2022-10-29T23:08:08.192Z,21.92
2022-10-29T23:10:35.710Z,21.87
2022-10-29T23:13:01.970Z,21.85
2022-10-29T23:15:28.173Z,21.83
2022-10-29T23:17:54.709Z,21.79
2022-10-29T23:20:21.255Z,21.77
2022-10-29T23:22:47.666Z,21.76
2022-10-29T23:25:13.960Z,21.74
2022-10-29T23:27:40.403Z,21.73
2022-10-29T23:30:07.069Z,21.70
2022-10-29T23:32:33.333Z,21.68
2022-10-29T23:34:59.576Z,21.67
2022-10-29T23:37:26.000Z,21.65
2022-10-29T23:39:52.484Z,21.63
2022-10-29T23:42:18.862Z,21.61
2022-10-29T23:44:45.170Z,21.59
2022-10-29T23:47:11.648Z,21.55
2022-10-29T23:49:37.884Z,21.53
2022-10-29T23:52:04.167Z,21.49
2022-10-29T23:54:30.576Z,21.48
2022-10-29T23:56:57.030Z,21.46
2022-10-29T23:59:23.652Z,21.44
